Time;durP1;ratioP1;P1;durP2;ratioP2;P2;SDS_P1;SDS_P2;PMS_P1;PMS_P2;Temp;Humidity;BMP_temperature;BMP_pressure;BME280_temperature;BME280_humidity;BME280_pressure;Samples;Min_cycle;Max_cycle;Signal;HPM_P1;HPM_P2
2021/01/23 00:01:04;;;;;;;28.25;19.82;;;;;;;0.59;81.82;98842.62;1718779;83;21198;-55
2021/01/23 00:03:32;;;;;;;28.42;19.82;;;;;;;0.64;81.68;98848.12;1710735;83;21153;-55
2021/01/23 00:06:00;;;;;;;28.42;19.45;;;;;;;0.69;81.42;98845.55;1693975;83;21318;-55
2021/01/23 00:08:27;;;;;;;31.68;22.25;;;;;;;0.62;81.59;98837.63;1687778;83;21318;-55
2021/01/23 00:10:55;;;;;;;29.18;20.80;;;;;;;0.54;81.77;98837.94;1698145;83;21646;-55
2021/01/23 00:13:22;;;;;;;46.30;26.00;;;;;;;0.52;81.91;98849.94;1689209;85;21145;-55
2021/01/23 00:15:49;;;;;;;62.90;33.67;;;;;;;0.60;81.60;98838.91;1709421;83;21161;-56
2021/01/23 00:18:17;;;;;;;52.93;30.57;;;;;;;0.58;81.59;98855.70;1700733;83;21299;-55
2021/01/23 00:20:46;;;;;;;36.13;23.57;;;;;;;0.48;81.73;98855.75;1720462;83;21168;-55
2021/01/23 00:23:13;;;;;;;38.25;24.02;;;;;;;0.39;82.06;98854.97;1697459;83;21145;-55
2021/01/23 00:25:40;;;;;;;39.75;24.90;;;;;;;0.45;82.09;98849.52;1708008;83;21137;-55
2021/01/23 00:28:08;;;;;;;35.08;22.73;;;;;;;0.48;81.90;98853.08;1693842;83;21142;-55
2021/01/23 00:30:35;;;;;;;37.25;23.73;;;;;;;0.38;82.12;98855.48;1708639;83;21191;-55
2021/01/23 00:33:04;;;;;;;53.55;28.17;;;;;;;0.30;82.52;98843.75;1720605;83;21149;-55
2021/01/23 00:38:09;;;;;;;36.88;24.02;;;;;;;0.37;82.35;98827.08;1814477;79;23526;-54
2021/01/23 00:40:36;;;;;;;44.23;25.82;;;;;;;0.22;82.66;98828.00;1765602;80;21129;-54
2021/01/23 00:43:04;;;;;;;35.88;25.02;;;;;;;0.17;82.85;98825.72;1759651;81;21629;-55
2021/01/23 00:45:31;;;;;;;32.10;21.23;;;;;;;0.28;82.69;98835.66;1758683;81;21622;-55
2021/01/23 00:47:58;;;;;;;35.00;23.95;;;;;;;0.29;82.66;98832.73;1757623;81;21303;-54
2021/01/23 00:50:26;;;;;;;33.53;22.80;;;;;;;0.21;82.87;98841.11;1660525;84;21723;-56
2021/01/23 00:52:55;;;;;;;33.10;22.48;;;;;;;0.13;83.19;98851.30;1664592;84;21322;-57
2021/01/23 00:55:23;;;;;;;34.15;22.25;;;;;;;0.25;82.79;98842.81;1704070;84;21167;-56
2021/01/23 00:57:51;;;;;;;31.80;21.50;;;;;;;0.30;82.46;98841.08;1711925;83;21199;-57
2021/01/23 01:00:20;;;;;;;32.50;22.32;;;;;;;0.26;82.57;98855.13;1705751;84;21149;-57
2021/01/23 01:02:48;;;;;;;31.87;21.55;;;;;;;0.20;82.64;98850.17;1699995;84;21168;-56
2021/01/23 01:05:18;;;;;;;32.13;21.42;;;;;;;0.25;82.50;98844.94;1707225;83;21181;-56
2021/01/23 01:07:45;;;;;;;32.80;22.95;;;;;;;0.30;82.29;98846.43;1699655;84;21144;-56
2021/01/23 01:10:13;;;;;;;35.78;24.32;;;;;;;0.23;82.52;98840.87;1705005;84;21177;-57
2021/01/23 01:12:41;;;;;;;30.55;21.40;;;;;;;0.13;82.90;98829.38;1703432;83;21200;-57
2021/01/23 01:15:10;;;;;;;32.20;22.80;;;;;;;0.19;82.77;98819.09;1699022;84;21188;-56
2021/01/23 01:17:37;;;;;;;32.63;22.00;;;;;;;0.21;82.55;98819.70;1705746;84;21719;-57
2021/01/23 01:20:08;;;;;;;34.88;23.75;;;;;;;0.14;82.80;98822.17;1676492;84;21280;-57
2021/01/23 01:22:38;;;;;;;40.75;26.52;;;;;;;0.05;83.15;98821.66;1678834;84;21706;-57
2021/01/23 01:25:07;;;;;;;32.25;23.07;;;;;;;0.13;83.09;98827.22;1699015;84;21314;-56
2021/01/23 01:27:35;;;;;;;33.00;22.48;;;;;;;0.17;82.97;98823.87;1698904;84;21582;-57
2021/01/23 01:30:04;;;;;;;37.98;22.75;;;;;;;0.11;83.26;98821.28;1707673;84;21319;-57
2021/01/23 01:32:32;;;;;;;31.87;22.42;;;;;;;0.04;83.48;98825.36;1712943;84;21192;-57
2021/01/23 01:35:00;;;;;;;34.15;22.20;;;;;;;0.16;83.10;98824.08;1707413;84;21580;-57
2021/01/23 01:37:27;;;;;;;30.00;21.23;;;;;;;0.23;82.84;98826.14;1657405;84;21635;-57
2021/01/23 01:39:55;;;;;;;31.00;21.35;;;;;;;0.17;82.86;98831.89;1705086;84;21195;-57
2021/01/23 01:42:22;;;;;;;31.95;22.25;;;;;;;0.08;83.03;98825.73;1708621;84;21148;-58
2021/01/23 01:44:50;;;;;;;30.12;20.10;;;;;;;0.15;82.86;98826.45;1699131;84;21658;-57
2021/01/23 01:47:17;;;;;;;31.37;22.42;;;;;;;0.15;82.63;98829.95;1706293;84;21621;-57
2021/01/23 01:49:47;;;;;;;29.63;21.25;;;;;;;0.06;82.95;98829.16;1711739;84;21185;-57
2021/01/23 01:52:17;;;;;;;29.27;20.85;;;;;;;0.00;83.23;98832.23;1685129;84;21177;-57
2021/01/23 01:54:44;;;;;;;28.38;20.90;;;;;;;0.09;83.00;98826.85;1711796;84;21215;-57
2021/01/23 01:57:11;;;;;;;27.82;20.05;;;;;;;0.11;82.93;98818.06;1702268;84;21567;-57
2021/01/23 01:59:38;;;;;;;30.62;20.70;;;;;;;0.02;83.19;98821.29;1699627;84;21169;-57
2021/01/23 02:02:28;;;;;;;29.25;19.85;;;;;;;-0.01;83.31;98827.92;1697534;83;21204;-57
2021/01/23 02:05:10;;;;;;;29.12;19.48;;;;;;;0.12;82.90;98825.58;1693812;84;21175;-57
2021/01/23 02:08:20;;;;;;;30.68;20.15;;;;;;;0.05;82.92;98832.36;1685256;84;21714;-58
2021/01/23 02:11:11;;;;;;;30.68;20.77;;;;;;;-0.06;83.24;98827.25;1702835;84;21658;-56
2021/01/23 02:13:53;;;;;;;28.25;19.32;;;;;;;0.02;82.98;98831.47;1694942;84;21109;-55
2021/01/23 02:16:25;;;;;;;29.52;19.52;;;;;;;0.01;82.92;98828.49;1706372;84;21143;-56
2021/01/23 02:19:06;;;;;;;28.57;19.57;;;;;;;-0.08;83.18;98843.23;1685664;84;21187;-56
2021/01/23 02:22:04;;;;;;;23.50;17.50;;;;;;;-0.06;83.07;98848.66;1682171;84;21203;-56
2021/01/23 02:24:31;;;;;;;28.77;18.87;;;;;;;0.00;82.93;98857.11;1694261;84;21780;-56
2021/01/23 02:27:10;;;;;;;30.95;20.52;;;;;;;-0.08;83.01;98856.09;1711164;84;21592;-56
2021/01/23 02:30:04;;;;;;;25.00;18.10;;;;;;;-0.16;83.33;98862.26;1709096;84;21163;-56
2021/01/23 02:32:33;;;;;;;28.55;20.50;;;;;;;-0.03;82.92;98854.88;1706848;84;21161;-56
2021/01/23 02:35:02;;;;;;;28.07;19.52;;;;;;;-0.08;83.01;98867.31;1661440;84;21181;-56
2021/01/23 02:37:29;;;;;;;25.90;18.17;;;;;;;-0.16;83.25;98855.05;1707486;84;21284;-56
2021/01/23 02:39:57;;;;;;;30.15;19.35;;;;;;;-0.12;83.19;98851.41;1707938;84;21193;-55
2021/01/23 02:42:24;;;;;;;31.00;19.92;;;;;;;-0.07;82.95;98852.88;1711122;84;21613;-56
2021/01/23 02:44:51;;;;;;;26.62;18.12;;;;;;;-0.13;83.13;98853.27;1705986;84;21650;-56
2021/01/23 02:47:19;;;;;;;27.73;18.30;;;;;;;-0.16;83.23;98869.77;1709741;83;21610;-55
2021/01/23 02:49:47;;;;;;;26.62;19.42;;;;;;;-0.10;83.06;98861.36;1708160;84;21530;-55
2021/01/23 02:52:43;;;;;;;28.62;18.65;;;;;;;-0.05;82.92;98867.69;1663759;84;21149;-55
2021/01/23 02:55:23;;;;;;;25.72;18.87;;;;;;;-0.09;83.16;98858.98;1753233;79;23309;-57
2021/01/23 02:57:50;;;;;;;25.52;17.15;;;;;;;-0.15;83.16;98856.70;1676237;85;21675;-57
2021/01/23 03:00:20;;;;;;;24.32;16.97;;;;;;;-0.05;82.81;98850.81;1664878;85;21725;-57
2021/01/23 03:02:53;;;;;;;26.25;18.98;;;;;;;-0.10;83.02;98860.84;1634486;88;21216;-57
2021/01/23 03:05:26;;;;;;;28.50;19.48;;;;;;;-0.17;83.26;98860.10;1673952;85;21322;-57
2021/01/23 03:07:56;;;;;;;29.00;18.87;;;;;;;-0.11;83.24;98858.41;1677096;85;21184;-57
2021/01/23 03:10:38;;;;;;;26.05;18.40;;;;;;;-0.07;82.97;98855.03;1683374;85;21210;-56
2021/01/23 03:13:07;;;;;;;26.12;17.70;;;;;;;-0.13;83.19;98859.13;1682940;85;21200;-57
2021/01/23 03:15:35;;;;;;;25.20;17.98;;;;;;;-0.15;83.30;98867.40;1658965;85;21294;-57
2021/01/23 03:18:04;;;;;;;24.85;17.98;;;;;;;-0.01;82.97;98856.02;1675578;85;21326;-57
2021/01/23 03:20:32;;;;;;;28.07;18.75;;;;;;;-0.02;82.88;98851.17;1681624;85;21302;-57
2021/01/23 03:22:59;;;;;;;27.80;19.80;;;;;;;-0.12;83.12;98849.56;1680393;85;21153;-57
2021/01/23 03:25:27;;;;;;;26.80;19.20;;;;;;;-0.09;82.98;98858.47;1667020;85;21184;-56
2021/01/23 03:27:57;;;;;;;28.10;19.60;;;;;;;0.00;82.45;98850.97;1681208;85;21184;-57
2021/01/23 03:30:27;;;;;;;26.15;17.85;;;;;;;-0.05;82.64;98846.80;1683424;85;21658;-57
2021/01/23 03:32:55;;;;;;;27.02;19.70;;;;;;;-0.16;82.94;98851.05;1681477;85;21165;-57
2021/01/23 03:35:23;;;;;;;27.58;17.77;;;;;;;-0.12;82.75;98849.56;1660881;84;21180;-57
2021/01/23 03:37:50;;;;;;;24.15;17.52;;;;;;;-0.07;82.59;98849.69;1676511;85;21714;-57
2021/01/23 03:40:19;;;;;;;27.82;17.77;;;;;;;-0.16;82.69;98847.03;1673694;85;21334;-57
2021/01/23 03:42:46;;;;;;;24.82;16.62;;;;;;;-0.25;82.90;98861.73;1650345;85;21153;-56
2021/01/23 03:45:14;;;;;;;24.27;16.87;;;;;;;-0.22;82.79;98849.27;1669909;85;21606;-57
2021/01/23 03:47:42;;;;;;;26.02;17.87;;;;;;;-0.22;82.75;98851.13;1645438;87;21316;-57
2021/01/23 03:50:12;;;;;;;26.55;18.20;;;;;;;-0.30;82.87;98848.23;1631652;85;21145;-57
2021/01/23 03:52:40;;;;;;;23.83;17.12;;;;;;;-0.36;83.04;98845.63;1672860;85;21145;-57
2021/01/23 03:55:09;;;;;;;27.52;17.82;;;;;;;-0.25;82.71;98852.37;1677035;84;21331;-58
2021/01/23 03:57:36;;;;;;;25.55;17.45;;;;;;;-0.28;82.71;98847.98;1635984;86;21302;-57
2021/01/23 04:00:08;;;;;;;24.95;16.77;;;;;;;-0.35;82.91;98848.58;1651023;85;21185;-57
2021/01/23 04:02:35;;;;;;;27.77;18.37;;;;;;;-0.35;82.94;98836.55;1635621;86;21152;-57
2021/01/23 04:05:05;;;;;;;30.20;20.80;;;;;;;-0.34;82.83;98834.17;1656914;85;21199;-57
2021/01/23 04:07:33;;;;;;;30.97;20.12;;;;;;;-0.41;83.02;98850.81;1685385;85;21573;-57
2021/01/23 04:10:01;;;;;;;27.48;17.92;;;;;;;-0.49;83.34;98843.91;1685144;85;21156;-57
2021/01/23 04:12:32;;;;;;;27.10;18.80;;;;;;;-0.47;83.48;98841.84;1663430;85;21185;-57
2021/01/23 04:14:59;;;;;;;27.37;19.70;;;;;;;-0.44;83.32;98856.61;1654231;86;21226;-57
2021/01/23 04:17:27;;;;;;;27.37;18.42;;;;;;;-0.53;83.48;98858.23;1672785;85;21290;-57
2021/01/23 04:19:55;;;;;;;25.65;16.65;;;;;;;-0.46;83.38;98860.05;1594441;88;21326;-57
2021/01/23 04:22:22;;;;;;;26.90;17.42;;;;;;;-0.42;83.15;98863.88;1662848;85;21176;-57
2021/01/23 04:24:49;;;;;;;27.48;18.00;;;;;;;-0.51;83.30;98858.84;1651204;85;21229;-57
2021/01/23 04:27:17;;;;;;;25.92;17.00;;;;;;;-0.56;83.44;98856.01;1629967;86;21153;-57
2021/01/23 04:29:44;;;;;;;26.85;18.30;;;;;;;-0.46;83.04;98852.02;1663686;85;21573;-57
2021/01/23 04:32:12;;;;;;;27.75;18.57;;;;;;;-0.52;83.21;98843.84;1633081;85;21302;-57
2021/01/23 04:34:40;;;;;;;25.60;17.45;;;;;;;-0.63;83.43;98843.23;1685045;85;21223;-57
2021/01/23 04:37:08;;;;;;;27.32;18.45;;;;;;;-0.59;83.37;98852.45;1684608;85;21651;-57
2021/01/23 04:39:35;;;;;;;27.62;19.35;;;;;;;-0.56;83.18;98847.17;1596500;86;21595;-57
2021/01/23 04:42:09;;;;;;;32.78;20.95;;;;;;;-0.63;83.46;98852.59;1652084;85;21205;-57
2021/01/23 04:44:37;;;;;;;28.38;19.85;;;;;;;-0.65;83.56;98846.66;1608183;86;21184;-57
2021/01/23 04:47:04;;;;;;;30.05;19.62;;;;;;;-0.57;83.44;98850.36;1648767;85;21157;-57
2021/01/23 04:49:33;;;;;;;27.42;19.80;;;;;;;-0.58;83.42;98862.11;1629529;88;21188;-57
2021/01/23 04:52:03;;;;;;;28.50;19.60;;;;;;;-0.63;83.60;98859.78;1667840;85;21299;-57
2021/01/23 04:54:31;;;;;;;28.27;19.75;;;;;;;-0.59;83.43;98860.98;1669346;85;21645;-57
2021/01/23 04:57:00;;;;;;;31.10;21.25;;;;;;;-0.54;83.15;98865.98;1640039;86;21302;-57
2021/01/23 04:59:27;;;;;;;31.85;22.80;;;;;;;-0.62;83.30;98869.45;1639675;86;21202;-57
2021/01/23 05:02:17;;;;;;;28.55;19.98;;;;;;;-0.69;83.43;98858.83;1646358;86;21239;-57
2021/01/23 05:04:52;;;;;;;28.15;19.65;;;;;;;-0.61;83.12;98859.06;1695499;84;21167;-57
2021/01/23 05:07:27;;;;;;;27.95;19.30;;;;;;;-0.73;83.35;98860.30;1695613;84;21160;-57
2021/01/23 05:10:15;;;;;;;29.98;20.15;;;;;;;-0.83;83.79;98855.98;1689797;84;21294;-57
2021/01/23 05:12:46;;;;;;;27.98;19.42;;;;;;;-0.73;83.61;98860.81;1661142;86;21639;-57
2021/01/23 05:15:31;;;;;;;28.42;17.98;;;;;;;-0.82;84.01;98864.30;1693624;84;21193;-57
2021/01/23 05:18:04;;;;;;;28.70;19.75;;;;;;;-0.83;84.16;98862.66;1693186;84;21164;-57
2021/01/23 05:20:48;;;;;;;29.32;19.73;;;;;;;-0.73;83.90;98870.98;1678226;84;21163;-57
2021/01/23 05:23:22;;;;;;;28.70;19.42;;;;;;;-0.85;83.96;98861.25;1641385;86;21120;-57
2021/01/23 05:25:57;;;;;;;30.12;19.48;;;;;;;-0.79;84.10;98870.55;1653922;86;21228;-58
2021/01/23 05:28:37;;;;;;;27.47;18.70;;;;;;;-0.66;83.74;98872.26;1695637;84;21193;-57
2021/01/23 05:31:17;;;;;;;27.70;18.57;;;;;;;-0.65;83.71;98876.58;1688273;84;21937;-57
2021/01/23 05:33:44;;;;;;;28.40;19.37;;;;;;;-0.69;83.81;98873.53;1652804;86;21599;-56
2021/01/23 05:36:13;;;;;;;27.40;18.90;;;;;;;-0.60;83.55;98876.20;1658024;86;21195;-56
2021/01/23 05:38:43;;;;;;;29.98;18.70;;;;;;;-0.52;83.14;98878.59;1664759;86;21180;-56
2021/01/23 05:41:13;;;;;;;31.33;20.65;;;;;;;-0.58;83.10;98880.83;1638583;86;21331;-56
2021/01/23 05:43:50;;;;;;;29.80;19.20;;;;;;;-0.66;83.14;98880.27;1687653;84;21172;-56
2021/01/23 05:46:30;;;;;;;29.35;20.70;;;;;;;-0.59;82.89;98878.36;1684910;84;21164;-56
2021/01/23 05:48:58;;;;;;;34.83;21.07;;;;;;;-0.63;82.99;98882.50;1695025;84;21295;-56
2021/01/23 05:51:26;;;;;;;30.72;21.05;;;;;;;-0.73;83.29;98881.67;1675900;84;21204;-56
2021/01/23 05:53:53;;;;;;;26.40;19.62;;;;;;;-0.93;83.23;98846.31;1688193;84;21132;-55
2021/01/23 05:56:21;;;;;;;29.00;20.65;;;;;;;-0.64;83.12;98890.25;1624469;87;21145;-56
2021/01/23 05:58:49;;;;;;;30.25;20.72;;;;;;;-0.71;83.33;98879.59;1668344;86;21181;-56
2021/01/23 06:01:20;;;;;;;26.65;18.55;;;;;;;-0.72;83.79;98877.16;1660058;86;21149;-56
2021/01/23 06:03:51;;;;;;;29.85;21.02;;;;;;;-0.64;83.97;98876.34;1691528;84;21693;-57
2021/01/23 06:06:18;;;;;;;29.12;20.15;;;;;;;-0.64;83.89;98883.02;1709385;84;21304;-56
2021/01/23 06:08:47;;;;;;;29.82;21.07;;;;;;;-0.67;84.06;98896.83;1701184;84;21189;-56
2021/01/23 06:11:23;;;;;;;29.90;20.35;;;;;;;-0.59;83.91;98897.07;1683451;84;21164;-57
2021/01/23 06:13:52;;;;;;;32.40;22.02;;;;;;;-0.51;83.62;98900.80;1689056;84;21316;-56
2021/01/23 06:16:36;;;;;;;30.57;20.88;;;;;;;-0.54;83.83;98891.89;1690584;84;21180;-56
2021/01/23 06:19:15;;;;;;;28.83;20.95;;;;;;;-0.57;83.91;98881.09;1660558;85;21157;-57
2021/01/23 06:21:48;;;;;;;29.25;21.05;;;;;;;-0.45;83.50;98885.72;1659027;86;21613;-56
2021/01/23 06:24:18;;;;;;;29.45;20.82;;;;;;;-0.53;83.36;98882.81;1680945;85;21181;-56
2021/01/23 06:26:56;;;;;;;31.82;20.20;;;;;;;-0.63;83.51;98883.33;1681974;84;21209;-55
2021/01/23 06:29:38;;;;;;;28.00;19.30;;;;;;;-0.59;83.42;98886.38;1696055;84;21150;-55
2021/01/23 06:32:23;;;;;;;26.75;19.73;;;;;;;-0.53;83.22;98899.67;1681118;85;21581;-56
2021/01/23 06:34:57;;;;;;;30.95;20.55;;;;;;;-0.61;83.58;98898.64;1680805;84;21209;-55
2021/01/23 06:37:33;;;;;;;28.98;20.20;;;;;;;-0.50;83.46;98900.56;1682646;84;21161;-56
2021/01/23 06:40:26;;;;;;;29.37;21.02;;;;;;;-0.42;83.29;98894.63;1683309;84;21639;-56
2021/01/23 06:42:54;;;;;;;29.02;19.77;;;;;;;-0.46;83.47;98890.80;1686608;84;21114;-56
2021/01/23 06:45:35;;;;;;;31.12;21.35;;;;;;;-0.44;83.48;98892.20;1690345;84;21134;-55
2021/01/23 06:48:05;;;;;;;27.85;19.48;;;;;;;-0.28;83.17;98889.44;1690778;84;21700;-55
2021/01/23 06:50:39;;;;;;;27.20;19.67;;;;;;;-0.26;83.22;98887.38;1662870;84;21169;-55
2021/01/23 06:53:20;;;;;;;30.32;21.62;;;;;;;-0.20;83.06;98886.48;1701403;84;21177;-54
2021/01/23 06:55:51;;;;;;;27.93;18.95;;;;;;;0.00;82.54;98891.89;1717113;83;21258;-55
2021/01/23 06:58:25;;;;;;;28.07;19.95;;;;;;;0.21;81.85;98883.94;1701867;83;21177;-55
2021/01/23 07:00:57;;;;;;;30.57;20.60;;;;;;;0.27;81.30;98881.69;1694166;83;21168;-56
2021/01/23 07:03:27;;;;;;;28.57;18.73;;;;;;;0.38;80.99;98875.57;1707587;83;21169;-55
2021/01/23 07:05:59;;;;;;;24.98;17.05;;;;;;;0.61;80.09;98888.72;1698141;83;21340;-55
2021/01/23 07:09:51;;;;;;;26.55;19.30;;;;;;;0.86;79.44;98886.70;1797060;79;23657;-54
2021/01/23 07:12:46;;;;;;;26.50;18.37;;;;;;;0.89;79.03;98886.23;1762208;80;21148;-54
2021/01/23 07:15:30;;;;;;;26.42;19.55;;;;;;;1.09;78.94;98905.52;1761660;80;21716;-54
2021/01/23 07:17:58;;;;;;;27.13;19.80;;;;;;;1.54;78.28;98907.64;1761732;80;21156;-56
2021/01/23 07:20:25;;;;;;;28.25;18.65;;;;;;;1.81;77.78;98908.26;1787660;80;21614;-56
2021/01/23 07:22:54;;;;;;;28.52;20.27;;;;;;;2.07;76.17;98904.25;1786231;80;21145;-56
2021/01/23 07:25:22;;;;;;;27.93;19.98;;;;;;;2.27;75.25;98910.03;1764634;80;21158;-56
2021/01/23 07:27:49;;;;;;;30.80;18.95;;;;;;;2.39;73.53;98905.45;1775458;80;21191;-56
2021/01/23 07:30:18;;;;;;;27.10;17.73;;;;;;;2.67;72.83;98910.01;1738285;80;21967;-56
2021/01/23 07:32:46;;;;;;;29.23;19.65;;;;;;;2.93;72.80;98916.66;1768712;80;21303;-57
2021/01/23 07:35:15;;;;;;;40.10;24.05;;;;;;;3.14;72.80;98923.20;1767068;80;21164;-56
2021/01/23 07:37:55;;;;;;;38.10;23.65;;;;;;;3.34;72.19;98924.34;1761455;80;21162;-56
2021/01/23 07:40:27;;;;;;;37.60;24.82;;;;;;;3.60;71.91;98923.41;1773241;80;21372;-56
2021/01/23 07:42:59;;;;;;;31.80;21.80;;;;;;;3.85;71.05;98919.22;1776872;80;21184;-56
2021/01/23 07:45:28;;;;;;;38.85;24.40;;;;;;;4.12;70.54;98915.25;1780065;80;21194;-56
2021/01/23 07:48:04;;;;;;;27.55;20.35;;;;;;;4.62;69.76;98905.62;1725329;82;21584;-57
2021/01/23 07:50:41;;;;;;;27.07;20.55;;;;;;;5.04;66.33;98915.20;1722242;82;21323;-58
2021/01/23 07:53:19;;;;;;;31.12;22.15;;;;;;;5.21;65.19;98910.50;1727602;82;21204;-57
2021/01/23 07:55:48;;;;;;;30.80;20.88;;;;;;;5.23;63.56;98913.77;1717308;82;21725;-55
2021/01/23 07:58:15;;;;;;;28.12;20.27;;;;;;;5.11;63.86;98906.89;1734314;81;21750;-55
2021/01/23 08:00:43;;;;;;;26.48;19.30;;;;;;;5.07;63.82;98916.03;1742029;81;21598;-55
2021/01/23 08:03:11;;;;;;;31.77;20.32;;;;;;;5.03;64.68;98910.34;1723026;83;21196;-56
2021/01/23 08:05:48;;;;;;;27.58;19.75;;;;;;;5.11;64.09;98914.99;1700186;83;21173;-55
2021/01/23 08:08:29;;;;;;;;;;;;;;;5.32;64.30;98917.61;1696628;83;21153;-57
2021/01/23 08:10:58;;;;;;;24.50;18.70;;;;;;;5.60;62.90;98919.73;1704953;83;20191;-58
2021/01/23 08:13:27;;;;;;;26.33;19.17;;;;;;;5.63;62.94;98912.46;1705811;83;21629;-58
2021/01/23 08:16:11;;;;;;;25.85;18.48;;;;;;;5.72;61.97;98915.77;1684490;83;21302;-57
2021/01/23 08:18:38;;;;;;;29.70;20.00;;;;;;;5.60;62.23;98917.83;1670137;85;21815;-57
2021/01/23 08:21:20;;;;;;;29.52;21.65;;;;;;;5.50;62.46;98921.27;1728897;82;21166;-58
2021/01/23 08:23:47;;;;;;;29.35;21.70;;;;;;;5.51;62.33;98908.06;1745041;80;21495;-58
2021/01/23 08:26:18;;;;;;;29.37;22.27;;;;;;;5.39;62.39;98905.25;1748879;82;21173;-58
2021/01/23 08:28:47;;;;;;;27.85;21.12;;;;;;;5.23;63.06;98899.46;1736974;82;21796;-57
2021/01/23 08:31:19;;;;;;;31.52;22.30;;;;;;;5.18;63.48;98898.88;1752018;82;21132;-57
2021/01/23 08:33:53;;;;;;;29.25;21.77;;;;;;;5.23;63.26;98894.88;1722458;82;21190;-58
2021/01/23 08:36:18;;;;;;;28.23;21.15;;;;;;;5.21;62.96;98901.05;1708277;83;21524;-57
2021/01/23 08:38:49;;;;;;;29.07;22.17;;;;;;;5.26;63.24;98902.46;1683407;85;21164;-57
2021/01/23 08:41:16;;;;;;;27.90;20.37;;;;;;;5.38;62.75;98893.66;1730673;82;21632;-57
2021/01/23 08:43:44;;;;;;;28.07;21.17;;;;;;;5.40;62.21;98906.35;1736999;82;21189;-57
2021/01/23 08:46:11;;;;;;;25.35;19.17;;;;;;;5.46;62.63;98903.96;1703739;83;21307;-56
2021/01/23 08:48:39;;;;;;;28.12;20.68;;;;;;;5.56;62.18;98906.47;1689780;85;21332;-57
2021/01/23 08:51:07;;;;;;;28.35;20.88;;;;;;;5.63;61.91;98903.83;1746922;82;21138;-57
2021/01/23 08:53:34;;;;;;;27.00;20.85;;;;;;;5.72;61.65;98903.61;1723295;80;65622;-64
2021/01/23 08:56:02;;;;;;;28.27;21.00;;;;;;;5.84;61.37;98902.07;1672308;84;21334;-67
2021/01/23 08:58:29;;;;;;;27.48;20.08;;;;;;;5.86;60.82;98904.81;1678585;85;21183;-66
2021/01/23 09:00:58;;;;;;;28.23;19.25;;;;;;;5.69;60.69;98893.33;1686173;85;21154;-66
2021/01/23 09:03:25;;;;;;;28.77;20.23;;;;;;;5.53;61.27;98892.94;1666937;85;21697;-64
2021/01/23 09:05:53;;;;;;;27.75;20.12;;;;;;;5.47;61.78;98883.18;1687072;84;21187;-65
2021/01/23 09:08:20;;;;;;;26.77;21.55;;;;;;;5.42;62.04;98879.90;1685971;85;21728;-64
2021/01/23 09:10:48;;;;;;;26.90;19.95;;;;;;;5.31;62.09;98878.76;1676845;85;21170;-64
2021/01/23 09:13:16;;;;;;;27.17;21.12;;;;;;;5.21;62.37;98878.69;1689193;85;21174;-64
2021/01/23 09:15:43;;;;;;;27.65;20.70;;;;;;;5.09;62.79;98883.42;1660465;85;21166;-63
2021/01/23 09:18:11;;;;;;;25.80;18.37;;;;;;;4.97;63.01;98880.88;1674567;85;21142;-65
2021/01/23 09:20:39;;;;;;;24.98;19.00;;;;;;;5.00;63.59;98881.72;1677290;85;21169;-65
2021/01/23 09:23:08;;;;;;;26.77;20.60;;;;;;;5.03;63.18;98885.80;1684564;85;21189;-64
2021/01/23 09:25:35;;;;;;;29.85;20.72;;;;;;;5.01;63.49;98890.09;1684544;85;21627;-64
2021/01/23 09:28:04;;;;;;;28.80;21.27;;;;;;;5.04;63.58;98894.97;1665635;85;21671;-66
2021/01/23 09:30:32;;;;;;;27.93;20.75;;;;;;;5.11;63.50;98901.50;1665257;85;21206;-67
2021/01/23 09:32:59;;;;;;;29.45;19.80;;;;;;;5.07;63.64;98903.89;1669638;85;21200;-65
2021/01/23 09:35:27;;;;;;;24.60;17.98;;;;;;;5.17;63.55;98901.31;1678872;85;21155;-66
2021/01/23 09:37:54;;;;;;;24.87;19.05;;;;;;;5.44;62.75;98906.12;1678116;85;21160;-64
2021/01/23 09:40:22;;;;;;;26.12;19.92;;;;;;;5.55;62.18;98910.23;1682631;85;21209;-65
2021/01/23 09:42:49;;;;;;;26.15;19.65;;;;;;;5.47;62.39;98902.08;1676219;85;21138;-66
2021/01/23 09:45:17;;;;;;;27.58;19.35;;;;;;;5.44;62.57;98902.59;1684282;85;21178;-66
2021/01/23 09:47:44;;;;;;;28.47;20.37;;;;;;;5.41;62.84;98906.64;1683276;85;21611;-65
2021/01/23 09:50:13;;;;;;;27.67;20.65;;;;;;;5.38;63.00;98908.51;1672129;85;21292;-66
2021/01/23 09:52:41;;;;;;;26.50;19.52;;;;;;;5.36;62.96;98903.06;1690623;84;21308;-65
2021/01/23 09:55:10;;;;;;;28.50;20.43;;;;;;;5.45;63.39;98906.41;1687790;84;21256;-66
2021/01/23 09:57:37;;;;;;;26.05;19.17;;;;;;;5.55;62.83;98911.59;1694748;83;21315;-65
2021/01/23 10:00:06;;;;;;;27.40;20.32;;;;;;;5.70;62.56;98910.35;1663414;85;21605;-65
2021/01/23 10:02:36;;;;;;;28.77;19.70;;;;;;;5.90;62.11;98907.80;1671440;84;21320;-64
2021/01/23 10:05:06;;;;;;;25.88;18.92;;;;;;;6.12;61.79;98903.59;1699296;84;21189;-64
2021/01/23 10:07:34;;;;;;;26.57;19.30;;;;;;;6.29;62.04;98905.03;1703745;83;21158;-67
2021/01/23 10:10:04;;;;;;;23.30;17.45;;;;;;;6.46;60.75;98901.58;1687020;85;21630;-66
2021/01/23 10:12:33;;;;;;;31.55;22.93;;;;;;;6.53;60.11;98897.81;1665136;85;21161;-67
2021/01/23 10:15:00;;;;;;;36.93;26.42;;;;;;;6.53;59.91;98893.75;1682635;84;21577;-66
2021/01/23 10:17:27;;;;;;;29.87;21.80;;;;;;;6.51;60.02;98894.03;1691138;83;21143;-66
2021/01/23 10:19:55;;;;;;;33.18;23.10;;;;;;;6.36;60.12;98883.98;1681382;83;21223;-66
2021/01/23 10:22:23;;;;;;;27.55;20.43;;;;;;;6.31;60.66;98885.83;1667608;85;21130;-67
2021/01/23 10:24:50;;;;;;;26.70;20.65;;;;;;;6.28;60.33;98875.02;1663221;85;21259;-67
2021/01/23 10:27:18;;;;;;;27.20;19.70;;;;;;;6.22;60.43;98882.84;1645600;85;21137;-69
2021/01/23 10:29:45;;;;;;;26.75;19.32;;;;;;;6.18;61.07;98877.69;1668196;85;21665;-68
2021/01/23 10:32:14;;;;;;;29.90;19.55;;;;;;;6.15;60.87;98876.86;1659306;85;21124;-67
2021/01/23 10:34:42;;;;;;;27.77;19.75;;;;;;;6.02;61.06;98872.48;1673307;85;21581;-67
2021/01/23 10:37:09;;;;;;;46.08;29.92;;;;;;;6.00;61.60;98868.68;1671234;85;21140;-68
2021/01/23 10:39:37;;;;;;;26.77;18.90;;;;;;;6.14;61.21;98869.83;1667164;85;21193;-68
2021/01/23 10:42:07;;;;;;;25.75;17.73;;;;;;;6.21;60.81;98862.28;1633798;88;21339;-66
2021/01/23 10:44:39;;;;;;;26.82;20.02;;;;;;;6.21;60.68;98870.39;1650649;85;21320;-67
2021/01/23 10:47:07;;;;;;;29.00;20.23;;;;;;;6.20;60.89;98868.77;1656473;85;21295;-67
2021/01/23 10:49:36;;;;;;;24.00;18.30;;;;;;;6.24;61.14;98871.75;1660428;85;21586;-68
2021/01/23 10:52:04;;;;;;;25.85;19.07;;;;;;;6.28;60.84;98864.74;1665731;85;21563;-67
2021/01/23 10:54:32;;;;;;;25.55;19.00;;;;;;;6.30;60.69;98867.47;1667786;84;21197;-67
2021/01/23 10:57:02;;;;;;;28.00;20.80;;;;;;;6.33;60.67;98863.42;1702683;83;21180;-67
2021/01/23 10:59:30;;;;;;;38.83;26.42;;;;;;;6.39;60.47;98861.81;1668928;84;21226;-68
2021/01/23 11:01:57;;;;;;;27.15;19.90;;;;;;;6.43;60.33;98858.86;1706516;83;21138;-68
2021/01/23 11:04:25;;;;;;;25.48;19.02;;;;;;;6.42;60.11;98860.47;1704412;83;21346;-67
2021/01/23 11:06:53;;;;;;;29.77;21.17;;;;;;;6.43;60.46;98849.93;1675539;84;21160;-69
2021/01/23 11:09:20;;;;;;;31.27;23.42;;;;;;;6.40;60.37;98844.53;1705723;83;21469;-67
2021/01/23 11:11:48;;;;;;;26.77;20.40;;;;;;;6.39;60.48;98833.97;1677449;84;21160;-67
2021/01/23 11:14:16;;;;;;;30.75;21.33;;;;;;;6.39;60.72;98830.73;1715265;83;21184;-69
2021/01/23 11:16:43;;;;;;;28.38;20.82;;;;;;;6.42;60.64;98828.84;1688785;84;21220;-69
2021/01/23 11:19:12;;;;;;;26.50;20.80;;;;;;;6.60;60.50;98830.23;1707971;83;21331;-68
2021/01/23 11:21:41;;;;;;;28.57;20.20;;;;;;;6.73;59.75;98831.62;1691125;83;21133;-68
2021/01/23 11:24:09;;;;;;;27.17;18.70;;;;;;;6.71;59.86;98837.81;1728801;83;21181;-66
2021/01/23 11:26:36;;;;;;;26.25;19.37;;;;;;;6.66;59.72;98830.50;1698037;84;21146;-66
2021/01/23 11:29:04;;;;;;;24.80;19.02;;;;;;;6.62;59.75;98821.33;1694139;83;21253;-67
2021/01/23 11:31:32;;;;;;;27.37;19.05;;;;;;;6.57;59.82;98829.42;1687896;84;21580;-66
2021/01/23 11:34:00;;;;;;;23.18;17.32;;;;;;;6.53;60.04;98828.33;1685501;84;21643;-65
2021/01/23 11:36:29;;;;;;;26.97;19.55;;;;;;;6.50;60.28;98833.73;1706263;83;21208;-66
2021/01/23 11:38:58;;;;;;;29.10;20.90;;;;;;;6.51;60.49;98835.91;1700575;84;21173;-66
2021/01/23 11:41:25;;;;;;;28.70;19.00;;;;;;;6.57;60.51;98832.12;1724530;83;21172;-67